sensor_id;sensor_type;location;lat;lon;timestamp;P1;durP1;ratioP1;P2;durP2;ratioP2
75429;SDS011;64127;51.488;5.462;2023-04-15T00:02:19;6.87;;;4.17;;
75429;SDS011;64127;51.488;5.462;2023-04-15T00:04:51;6.57;;;4.20;;
75429;SDS011;64127;51.488;5.462;2023-04-15T00:07:23;6.43;;;4.00;;
75429;SDS011;64127;51.488;5.462;2023-04-15T00:09:55;4.87;;;3.60;;
75429;SDS011;64127;51.488;5.462;2023-04-15T00:12:28;4.73;;;4.00;;
75429;SDS011;64127;51.488;5.462;2023-04-15T00:15:00;6.93;;;4.20;;
75429;SDS011;64127;51.488;5.462;2023-04-15T00:17:32;5.70;;;4.17;;
75429;SDS011;64127;51.488;5.462;2023-04-15T00:20:04;4.57;;;3.90;;
75429;SDS011;64127;51.488;5.462;2023-04-15T00:22:37;6.47;;;4.27;;
75429;SDS011;64127;51.488;5.462;2023-04-15T00:25:09;6.53;;;4.33;;
75429;SDS011;64127;51.488;5.462;2023-04-15T00:27:41;6.03;;;4.23;;
75429;SDS011;64127;51.488;5.462;2023-04-15T00:30:13;6.77;;;4.40;;
75429;SDS011;64127;51.488;5.462;2023-04-15T00:32:45;7.37;;;4.60;;
75429;SDS011;64127;51.488;5.462;2023-04-15T00:35:19;8.50;;;4.70;;
75429;SDS011;64127;51.488;5.462;2023-04-15T00:37:51;6.17;;;4.60;;
75429;SDS011;64127;51.488;5.462;2023-04-15T00:40:24;6.80;;;4.50;;
75429;SDS011;64127;51.488;5.462;2023-04-15T00:42:56;7.73;;;4.40;;
75429;SDS011;64127;51.488;5.462;2023-04-15T00:45:28;8.17;;;4.40;;
75429;SDS011;64127;51.488;5.462;2023-04-15T00:48:00;6.33;;;4.57;;
75429;SDS011;64127;51.488;5.462;2023-04-15T00:50:33;9.07;;;4.90;;
75429;SDS011;64127;51.488;5.462;2023-04-15T00:53:05;6.13;;;4.27;;
75429;SDS011;64127;51.488;5.462;2023-04-15T00:55:37;6.20;;;4.57;;
75429;SDS011;64127;51.488;5.462;2023-04-15T00:58:10;7.37;;;4.77;;
75429;SDS011;64127;51.488;5.462;2023-04-15T01:00:42;8.13;;;5.10;;
75429;SDS011;64127;51.488;5.462;2023-04-15T01:03:14;7.40;;;4.87;;
75429;SDS011;64127;51.488;5.462;2023-04-15T01:05:46;7.50;;;5.07;;
75429;SDS011;64127;51.488;5.462;2023-04-15T01:08:19;7.27;;;5.17;;
75429;SDS011;64127;51.488;5.462;2023-04-15T01:10:51;9.00;;;5.30;;
75429;SDS011;64127;51.488;5.462;2023-04-15T01:13:26;8.00;;;5.53;;
75429;SDS011;64127;51.488;5.462;2023-04-15T01:15:58;10.53;;;5.73;;
75429;SDS011;64127;51.488;5.462;2023-04-15T01:18:31;7.73;;;5.60;;
75429;SDS011;64127;51.488;5.462;2023-04-15T01:21:04;9.73;;;5.80;;
75429;SDS011;64127;51.488;5.462;2023-04-15T01:23:37;6.87;;;5.17;;
75429;SDS011;64127;51.488;5.462;2023-04-15T01:26:09;6.77;;;5.30;;
75429;SDS011;64127;51.488;5.462;2023-04-15T01:28:42;5.90;;;5.27;;
75429;SDS011;64127;51.488;5.462;2023-04-15T01:31:14;8.10;;;5.70;;
75429;SDS011;64127;51.488;5.462;2023-04-15T01:33:46;7.93;;;5.80;;
75429;SDS011;64127;51.488;5.462;2023-04-15T01:36:18;9.87;;;5.63;;
75429;SDS011;64127;51.488;5.462;2023-04-15T01:38:50;7.23;;;5.70;;
75429;SDS011;64127;51.488;5.462;2023-04-15T01:41:26;7.47;;;5.80;;
75429;SDS011;64127;51.488;5.462;2023-04-15T01:43:58;8.23;;;5.83;;
75429;SDS011;64127;51.488;5.462;2023-04-15T01:46:30;8.50;;;5.80;;
75429;SDS011;64127;51.488;5.462;2023-04-15T01:49:03;8.83;;;6.10;;
75429;SDS011;64127;51.488;5.462;2023-04-15T01:51:35;7.20;;;5.87;;
75429;SDS011;64127;51.488;5.462;2023-04-15T01:54:07;8.07;;;5.93;;
75429;SDS011;64127;51.488;5.462;2023-04-15T01:56:38;6.97;;;5.80;;
75429;SDS011;64127;51.488;5.462;2023-04-15T01:59:10;7.37;;;5.97;;
75429;SDS011;64127;51.488;5.462;2023-04-15T02:01:43;10.77;;;6.17;;
75429;SDS011;64127;51.488;5.462;2023-04-15T02:04:15;7.67;;;6.23;;
75429;SDS011;64127;51.488;5.462;2023-04-15T02:06:48;9.60;;;6.13;;
75429;SDS011;64127;51.488;5.462;2023-04-15T02:09:20;7.87;;;6.17;;
75429;SDS011;64127;51.488;5.462;2023-04-15T02:11:52;9.10;;;6.07;;
75429;SDS011;64127;51.488;5.462;2023-04-15T02:14:24;9.13;;;6.53;;
75429;SDS011;64127;51.488;5.462;2023-04-15T02:16:57;8.33;;;6.03;;
75429;SDS011;64127;51.488;5.462;2023-04-15T02:19:36;8.00;;;6.30;;
75429;SDS011;64127;51.488;5.462;2023-04-15T02:22:09;11.80;;;6.60;;
75429;SDS011;64127;51.488;5.462;2023-04-15T02:24:48;10.33;;;6.50;;
75429;SDS011;64127;51.488;5.462;2023-04-15T02:27:20;11.47;;;6.47;;
75429;SDS011;64127;51.488;5.462;2023-04-15T02:29:52;8.83;;;6.43;;
75429;SDS011;64127;51.488;5.462;2023-04-15T02:32:25;9.93;;;6.67;;
75429;SDS011;64127;51.488;5.462;2023-04-15T02:35:00;7.67;;;5.73;;
75429;SDS011;64127;51.488;5.462;2023-04-15T02:37:36;8.23;;;6.30;;
75429;SDS011;64127;51.488;5.462;2023-04-15T02:40:14;7.63;;;6.23;;
75429;SDS011;64127;51.488;5.462;2023-04-15T02:42:46;8.73;;;6.67;;
75429;SDS011;64127;51.488;5.462;2023-04-15T02:45:18;9.07;;;6.13;;
75429;SDS011;64127;51.488;5.462;2023-04-15T02:47:53;8.27;;;6.30;;
75429;SDS011;64127;51.488;5.462;2023-04-15T02:50:26;7.43;;;6.17;;
75429;SDS011;64127;51.488;5.462;2023-04-15T02:52:58;8.70;;;6.73;;
75429;SDS011;64127;51.488;5.462;2023-04-15T02:55:31;11.17;;;7.00;;
75429;SDS011;64127;51.488;5.462;2023-04-15T02:58:03;8.40;;;6.77;;
75429;SDS011;64127;51.488;5.462;2023-04-15T03:00:36;7.80;;;6.37;;
75429;SDS011;64127;51.488;5.462;2023-04-15T03:03:08;8.57;;;6.40;;
75429;SDS011;64127;51.488;5.462;2023-04-15T03:05:41;10.87;;;6.60;;
75429;SDS011;64127;51.488;5.462;2023-04-15T03:08:13;7.87;;;7.00;;
75429;SDS011;64127;51.488;5.462;2023-04-15T03:10:45;8.30;;;6.57;;
75429;SDS011;64127;51.488;5.462;2023-04-15T03:13:17;9.03;;;6.60;;
75429;SDS011;64127;51.488;5.462;2023-04-15T03:15:50;8.73;;;6.60;;
75429;SDS011;64127;51.488;5.462;2023-04-15T03:18:22;9.20;;;6.63;;
75429;SDS011;64127;51.488;5.462;2023-04-15T03:20:54;8.30;;;6.70;;
75429;SDS011;64127;51.488;5.462;2023-04-15T03:23:26;8.97;;;7.00;;
75429;SDS011;64127;51.488;5.462;2023-04-15T03:26:01;8.17;;;7.00;;
75429;SDS011;64127;51.488;5.462;2023-04-15T03:28:34;7.50;;;6.63;;
75429;SDS011;64127;51.488;5.462;2023-04-15T03:31:06;7.43;;;6.63;;
75429;SDS011;64127;51.488;5.462;2023-04-15T03:33:38;7.53;;;6.73;;
75429;SDS011;64127;51.488;5.462;2023-04-15T03:36:10;7.20;;;6.50;;
75429;SDS011;64127;51.488;5.462;2023-04-15T03:38:42;7.87;;;6.87;;
75429;SDS011;64127;51.488;5.462;2023-04-15T03:41:14;9.13;;;7.00;;
75429;SDS011;64127;51.488;5.462;2023-04-15T03:43:46;7.47;;;6.73;;
75429;SDS011;64127;51.488;5.462;2023-04-15T03:46:18;7.20;;;6.50;;
75429;SDS011;64127;51.488;5.462;2023-04-15T03:48:51;8.73;;;6.97;;
75429;SDS011;64127;51.488;5.462;2023-04-15T03:51:23;9.03;;;7.27;;
75429;SDS011;64127;51.488;5.462;2023-04-15T03:53:55;9.30;;;7.00;;
75429;SDS011;64127;51.488;5.462;2023-04-15T03:56:27;7.60;;;6.30;;
75429;SDS011;64127;51.488;5.462;2023-04-15T03:58:59;8.60;;;6.90;;
75429;SDS011;64127;51.488;5.462;2023-04-15T04:01:31;7.10;;;6.40;;
75429;SDS011;64127;51.488;5.462;2023-04-15T04:04:03;7.87;;;7.00;;
75429;SDS011;64127;51.488;5.462;2023-04-15T04:06:35;8.37;;;7.40;;
75429;SDS011;64127;51.488;5.462;2023-04-15T04:09:07;8.53;;;7.37;;
75429;SDS011;64127;51.488;5.462;2023-04-15T04:11:39;8.77;;;7.10;;
75429;SDS011;64127;51.488;5.462;2023-04-15T04:14:11;8.77;;;6.83;;
75429;SDS011;64127;51.488;5.462;2023-04-15T04:16:43;7.97;;;7.13;;
75429;SDS011;64127;51.488;5.462;2023-04-15T04:19:16;8.03;;;7.17;;
75429;SDS011;64127;51.488;5.462;2023-04-15T04:21:50;8.07;;;7.27;;
75429;SDS011;64127;51.488;5.462;2023-04-15T04:24:22;8.00;;;7.20;;
75429;SDS011;64127;51.488;5.462;2023-04-15T04:26:54;8.03;;;7.30;;
75429;SDS011;64127;51.488;5.462;2023-04-15T04:29:27;8.10;;;7.30;;
75429;SDS011;64127;51.488;5.462;2023-04-15T04:31:59;8.17;;;7.33;;
75429;SDS011;64127;51.488;5.462;2023-04-15T04:34:31;8.80;;;7.70;;
75429;SDS011;64127;51.488;5.462;2023-04-15T04:37:03;7.93;;;7.03;;
75429;SDS011;64127;51.488;5.462;2023-04-15T04:39:35;9.83;;;8.83;;
75429;SDS011;64127;51.488;5.462;2023-04-15T04:42:07;9.73;;;8.30;;
75429;SDS011;64127;51.488;5.462;2023-04-15T04:44:39;8.87;;;7.97;;
75429;SDS011;64127;51.488;5.462;2023-04-15T04:47:11;8.67;;;7.87;;
75429;SDS011;64127;51.488;5.462;2023-04-15T04:49:44;9.23;;;7.63;;
75429;SDS011;64127;51.488;5.462;2023-04-15T04:52:16;8.53;;;7.80;;
75429;SDS011;64127;51.488;5.462;2023-04-15T04:54:48;11.60;;;8.00;;
75429;SDS011;64127;51.488;5.462;2023-04-15T04:57:20;8.13;;;7.33;;
75429;SDS011;64127;51.488;5.462;2023-04-15T04:59:52;8.53;;;7.60;;
75429;SDS011;64127;51.488;5.462;2023-04-15T05:02:24;9.63;;;8.07;;
75429;SDS011;64127;51.488;5.462;2023-04-15T05:04:57;8.10;;;7.30;;
75429;SDS011;64127;51.488;5.462;2023-04-15T05:07:29;9.33;;;7.77;;
75429;SDS011;64127;51.488;5.462;2023-04-15T05:10:02;8.40;;;7.70;;
75429;SDS011;64127;51.488;5.462;2023-04-15T05:12:34;8.73;;;7.83;;
75429;SDS011;64127;51.488;5.462;2023-04-15T05:15:08;8.00;;;7.30;;
75429;SDS011;64127;51.488;5.462;2023-04-15T05:17:41;10.27;;;8.13;;
75429;SDS011;64127;51.488;5.462;2023-04-15T05:20:13;8.70;;;7.80;;
75429;SDS011;64127;51.488;5.462;2023-04-15T05:22:45;8.83;;;7.93;;
75429;SDS011;64127;51.488;5.462;2023-04-15T05:25:17;8.17;;;7.43;;
75429;SDS011;64127;51.488;5.462;2023-04-15T05:27:49;8.63;;;7.73;;
75429;SDS011;64127;51.488;5.462;2023-04-15T05:30:21;8.77;;;7.97;;
75429;SDS011;64127;51.488;5.462;2023-04-15T05:32:53;9.43;;;8.57;;
75429;SDS011;64127;51.488;5.462;2023-04-15T05:35:26;8.70;;;7.90;;
75429;SDS011;64127;51.488;5.462;2023-04-15T05:37:58;10.30;;;7.80;;
75429;SDS011;64127;51.488;5.462;2023-04-15T05:40:30;8.40;;;7.70;;
75429;SDS011;64127;51.488;5.462;2023-04-15T05:43:02;8.93;;;8.07;;
75429;SDS011;64127;51.488;5.462;2023-04-15T05:45:34;10.00;;;8.40;;
75429;SDS011;64127;51.488;5.462;2023-04-15T05:48:06;8.50;;;7.70;;
75429;SDS011;64127;51.488;5.462;2023-04-15T05:50:41;8.73;;;7.93;;
75429;SDS011;64127;51.488;5.462;2023-04-15T05:53:13;9.00;;;8.10;;
75429;SDS011;64127;51.488;5.462;2023-04-15T05:55:46;9.17;;;8.37;;
75429;SDS011;64127;51.488;5.462;2023-04-15T05:58:18;9.30;;;8.37;;
75429;SDS011;64127;51.488;5.462;2023-04-15T06:00:50;8.80;;;8.00;;
75429;SDS011;64127;51.488;5.462;2023-04-15T06:03:22;8.67;;;7.87;;
75429;SDS011;64127;51.488;5.462;2023-04-15T06:05:54;9.30;;;8.50;;
75429;SDS011;64127;51.488;5.462;2023-04-15T06:08:26;9.47;;;8.23;;
75429;SDS011;64127;51.488;5.462;2023-04-15T06:10:58;9.77;;;8.77;;
75429;SDS011;64127;51.488;5.462;2023-04-15T06:13:32;9.20;;;8.33;;
75429;SDS011;64127;51.488;5.462;2023-04-15T06:16:05;9.50;;;8.60;;
75429;SDS011;64127;51.488;5.462;2023-04-15T06:18:38;10.43;;;8.80;;
75429;SDS011;64127;51.488;5.462;2023-04-15T06:21:10;11.50;;;8.70;;
75429;SDS011;64127;51.488;5.462;2023-04-15T06:23:43;8.73;;;7.83;;
75429;SDS011;64127;51.488;5.462;2023-04-15T06:26:15;9.40;;;8.50;;
75429;SDS011;64127;51.488;5.462;2023-04-15T06:28:47;8.63;;;7.83;;
75429;SDS011;64127;51.488;5.462;2023-04-15T06:31:19;8.93;;;8.00;;
75429;SDS011;64127;51.488;5.462;2023-04-15T06:33:51;9.03;;;8.23;;
75429;SDS011;64127;51.488;5.462;2023-04-15T06:36:23;8.83;;;8.03;;
75429;SDS011;64127;51.488;5.462;2023-04-15T06:38:55;9.13;;;8.23;;
75429;SDS011;64127;51.488;5.462;2023-04-15T06:41:27;9.03;;;8.13;;
75429;SDS011;64127;51.488;5.462;2023-04-15T06:43:59;8.17;;;7.47;;
75429;SDS011;64127;51.488;5.462;2023-04-15T06:46:31;9.13;;;8.27;;
75429;SDS011;64127;51.488;5.462;2023-04-15T06:49:03;8.33;;;7.57;;
75429;SDS011;64127;51.488;5.462;2023-04-15T06:51:35;8.43;;;7.63;;
75429;SDS011;64127;51.488;5.462;2023-04-15T06:54:07;8.33;;;7.57;;
75429;SDS011;64127;51.488;5.462;2023-04-15T06:56:39;9.03;;;7.93;;
75429;SDS011;64127;51.488;5.462;2023-04-15T06:59:12;9.17;;;7.90;;
75429;SDS011;64127;51.488;5.462;2023-04-15T07:01:44;8.67;;;7.93;;
75429;SDS011;64127;51.488;5.462;2023-04-15T07:04:16;8.80;;;7.87;;
75429;SDS011;64127;51.488;5.462;2023-04-15T07:06:48;8.90;;;8.13;;
75429;SDS011;64127;51.488;5.462;2023-04-15T07:09:24;9.90;;;8.30;;
75429;SDS011;64127;51.488;5.462;2023-04-15T07:11:56;8.70;;;7.90;;
75429;SDS011;64127;51.488;5.462;2023-04-15T07:14:28;8.47;;;7.77;;
75429;SDS011;64127;51.488;5.462;2023-04-15T07:17:00;8.73;;;7.93;;
75429;SDS011;64127;51.488;5.462;2023-04-15T07:19:32;8.53;;;7.77;;
75429;SDS011;64127;51.488;5.462;2023-04-15T07:22:04;9.23;;;8.43;;
75429;SDS011;64127;51.488;5.462;2023-04-15T07:24:37;9.17;;;8.37;;
75429;SDS011;64127;51.488;5.462;2023-04-15T07:27:09;8.77;;;7.97;;
75429;SDS011;64127;51.488;5.462;2023-04-15T07:29:41;8.80;;;8.00;;
75429;SDS011;64127;51.488;5.462;2023-04-15T07:32:13;8.90;;;8.10;;
75429;SDS011;64127;51.488;5.462;2023-04-15T07:34:45;8.67;;;7.97;;
75429;SDS011;64127;51.488;5.462;2023-04-15T07:37:18;8.43;;;7.43;;
75429;SDS011;64127;51.488;5.462;2023-04-15T07:39:50;8.37;;;7.67;;
75429;SDS011;64127;51.488;5.462;2023-04-15T07:42:23;8.30;;;7.60;;
75429;SDS011;64127;51.488;5.462;2023-04-15T07:44:55;8.10;;;7.40;;
75429;SDS011;64127;51.488;5.462;2023-04-15T07:47:28;8.10;;;7.33;;
75429;SDS011;64127;51.488;5.462;2023-04-15T07:50:00;8.40;;;7.60;;
75429;SDS011;64127;51.488;5.462;2023-04-15T07:52:32;7.77;;;7.07;;
75429;SDS011;64127;51.488;5.462;2023-04-15T07:55:09;7.17;;;6.57;;
75429;SDS011;64127;51.488;5.462;2023-04-15T07:57:41;7.27;;;6.67;;
75429;SDS011;64127;51.488;5.462;2023-04-15T08:00:13;7.83;;;7.13;;
75429;SDS011;64127;51.488;5.462;2023-04-15T08:02:46;7.10;;;6.50;;
75429;SDS011;64127;51.488;5.462;2023-04-15T08:05:18;6.97;;;6.37;;
75429;SDS011;64127;51.488;5.462;2023-04-15T08:07:51;7.37;;;6.67;;
75429;SDS011;64127;51.488;5.462;2023-04-15T08:10:23;6.70;;;6.10;;
75429;SDS011;64127;51.488;5.462;2023-04-15T08:12:55;7.23;;;6.57;;
75429;SDS011;64127;51.488;5.462;2023-04-15T08:15:28;6.90;;;6.30;;
75429;SDS011;64127;51.488;5.462;2023-04-15T08:18:00;6.97;;;6.37;;
75429;SDS011;64127;51.488;5.462;2023-04-15T08:20:32;6.83;;;6.07;;
75429;SDS011;64127;51.488;5.462;2023-04-15T08:23:04;6.73;;;6.03;;
75429;SDS011;64127;51.488;5.462;2023-04-15T08:25:36;7.23;;;6.57;;
75429;SDS011;64127;51.488;5.462;2023-04-15T08:28:08;6.73;;;6.13;;
75429;SDS011;64127;51.488;5.462;2023-04-15T08:30:40;6.13;;;5.63;;
75429;SDS011;64127;51.488;5.462;2023-04-15T08:33:12;6.30;;;5.80;;
75429;SDS011;64127;51.488;5.462;2023-04-15T08:35:44;5.93;;;5.33;;
75429;SDS011;64127;51.488;5.462;2023-04-15T08:38:16;6.30;;;5.70;;
75429;SDS011;64127;51.488;5.462;2023-04-15T08:40:49;6.77;;;4.83;;
75429;SDS011;64127;51.488;5.462;2023-04-15T08:43:22;6.20;;;5.10;;
75429;SDS011;64127;51.488;5.462;2023-04-15T08:45:59;5.77;;;5.17;;
75429;SDS011;64127;51.488;5.462;2023-04-15T08:48:32;5.93;;;4.50;;
75429;SDS011;64127;51.488;5.462;2023-04-15T08:51:06;5.30;;;4.80;;
75429;SDS011;64127;51.488;5.462;2023-04-15T08:53:38;5.07;;;4.57;;
75429;SDS011;64127;51.488;5.462;2023-04-15T08:56:10;4.73;;;4.33;;
75429;SDS011;64127;51.488;5.462;2023-04-15T08:58:45;5.60;;;4.63;;
75429;SDS011;64127;51.488;5.462;2023-04-15T09:01:19;6.93;;;5.03;;
75429;SDS011;64127;51.488;5.462;2023-04-15T09:03:52;4.63;;;4.23;;
75429;SDS011;64127;51.488;5.462;2023-04-15T09:06:25;4.73;;;4.30;;
75429;SDS011;64127;51.488;5.462;2023-04-15T09:08:57;4.97;;;4.47;;
75429;SDS011;64127;51.488;5.462;2023-04-15T09:11:29;5.03;;;4.53;;
75429;SDS011;64127;51.488;5.462;2023-04-15T09:14:01;4.93;;;4.43;;
75429;SDS011;64127;51.488;5.462;2023-04-15T09:19:35;4.87;;;4.40;;
75429;SDS011;64127;51.488;5.462;2023-04-15T09:22:07;5.87;;;4.43;;
75429;SDS011;64127;51.488;5.462;2023-04-15T09:24:39;5.00;;;4.57;;
75429;SDS011;64127;51.488;5.462;2023-04-15T09:27:16;4.27;;;3.87;;
75429;SDS011;64127;51.488;5.462;2023-04-15T09:29:52;3.73;;;3.30;;
75429;SDS011;64127;51.488;5.462;2023-04-15T09:32:24;4.10;;;3.00;;
75429;SDS011;64127;51.488;5.462;2023-04-15T09:34:56;3.63;;;3.33;;
75429;SDS011;64127;51.488;5.462;2023-04-15T09:37:34;3.43;;;3.13;;
75429;SDS011;64127;51.488;5.462;2023-04-15T09:40:07;3.53;;;3.23;;
75429;SDS011;64127;51.488;5.462;2023-04-15T09:42:53;3.70;;;3.40;;
75429;SDS011;64127;51.488;5.462;2023-04-15T09:45:26;3.40;;;3.10;;
75429;SDS011;64127;51.488;5.462;2023-04-15T09:48:19;3.77;;;3.43;;
75429;SDS011;64127;51.488;5.462;2023-04-15T09:50:56;4.30;;;3.90;;
75429;SDS011;64127;51.488;5.462;2023-04-15T09:53:32;3.73;;;3.43;;
75429;SDS011;64127;51.488;5.462;2023-04-15T09:56:06;4.30;;;3.90;;
75429;SDS011;64127;51.488;5.462;2023-04-15T09:58:40;4.67;;;4.27;;
75429;SDS011;64127;51.488;5.462;2023-04-15T10:01:13;3.97;;;3.67;;
75429;SDS011;64127;51.488;5.462;2023-04-15T10:03:45;3.60;;;3.30;;
75429;SDS011;64127;51.488;5.462;2023-04-15T10:06:18;3.80;;;3.50;;
75429;SDS011;64127;51.488;5.462;2023-04-15T10:08:50;4.20;;;3.90;;
75429;SDS011;64127;51.488;5.462;2023-04-15T10:11:23;5.47;;;3.90;;
75429;SDS011;64127;51.488;5.462;2023-04-15T10:14:00;4.07;;;3.67;;
75429;SDS011;64127;51.488;5.462;2023-04-15T10:16:34;3.63;;;3.30;;
75429;SDS011;64127;51.488;5.462;2023-04-15T10:19:12;3.50;;;3.20;;
75429;SDS011;64127;51.488;5.462;2023-04-15T10:21:48;3.43;;;3.13;;
75429;SDS011;64127;51.488;5.462;2023-04-15T10:24:21;3.30;;;3.10;;
75429;SDS011;64127;51.488;5.462;2023-04-15T10:26:55;3.83;;;3.20;;
75429;SDS011;64127;51.488;5.462;2023-04-15T10:29:29;4.57;;;3.07;;
75429;SDS011;64127;51.488;5.462;2023-04-15T10:32:02;3.10;;;2.90;;
75429;SDS011;64127;51.488;5.462;2023-04-15T10:34:35;3.27;;;2.97;;
75429;SDS011;64127;51.488;5.462;2023-04-15T10:37:08;3.73;;;2.70;;
75429;SDS011;64127;51.488;5.462;2023-04-15T10:39:43;2.67;;;2.47;;
75429;SDS011;64127;51.488;5.462;2023-04-15T10:42:16;3.90;;;2.77;;
75429;SDS011;64127;51.488;5.462;2023-04-15T10:44:50;4.83;;;3.00;;
75429;SDS011;64127;51.488;5.462;2023-04-15T10:47:27;2.97;;;2.77;;
75429;SDS011;64127;51.488;5.462;2023-04-15T10:50:00;3.10;;;2.80;;
75429;SDS011;64127;51.488;5.462;2023-04-15T10:52:32;3.83;;;3.53;;
75429;SDS011;64127;51.488;5.462;2023-04-15T10:57:53;2.80;;;2.60;;
75429;SDS011;64127;51.488;5.462;2023-04-15T11:00:29;3.73;;;2.70;;
75429;SDS011;64127;51.488;5.462;2023-04-15T11:03:09;2.87;;;2.40;;
75429;SDS011;64127;51.488;5.462;2023-04-15T11:05:48;2.37;;;2.17;;
75429;SDS011;64127;51.488;5.462;2023-04-15T11:08:52;2.33;;;2.13;;
75429;SDS011;64127;51.488;5.462;2023-04-15T11:14:40;1.93;;;1.73;;
75429;SDS011;64127;51.488;5.462;2023-04-15T11:17:13;2.10;;;1.83;;
75429;SDS011;64127;51.488;5.462;2023-04-15T11:19:58;1.97;;;1.87;;
75429;SDS011;64127;51.488;5.462;2023-04-15T11:22:31;2.20;;;2.00;;
75429;SDS011;64127;51.488;5.462;2023-04-15T11:25:03;2.80;;;2.60;;
75429;SDS011;64127;51.488;5.462;2023-04-15T11:27:36;2.67;;;2.30;;
75429;SDS011;64127;51.488;5.462;2023-04-15T11:30:18;2.67;;;2.23;;
75429;SDS011;64127;51.488;5.462;2023-04-15T11:32:53;2.80;;;2.60;;
75429;SDS011;64127;51.488;5.462;2023-04-15T11:35:29;2.40;;;2.20;;
75429;SDS011;64127;51.488;5.462;2023-04-15T11:38:05;2.60;;;2.40;;
75429;SDS011;64127;51.488;5.462;2023-04-15T11:40:42;2.83;;;2.57;;
75429;SDS011;64127;51.488;5.462;2023-04-15T11:43:18;3.20;;;2.90;;
75429;SDS011;64127;51.488;5.462;2023-04-15T11:45:56;2.70;;;2.50;;
75429;SDS011;64127;51.488;5.462;2023-04-15T11:48:34;2.43;;;2.23;;
75429;SDS011;64127;51.488;5.462;2023-04-15T11:51:07;2.53;;;2.33;;
75429;SDS011;64127;51.488;5.462;2023-04-15T11:53:43;2.60;;;2.40;;
75429;SDS011;64127;51.488;5.462;2023-04-15T11:56:23;2.40;;;2.20;;
75429;SDS011;64127;51.488;5.462;2023-04-15T11:58:57;2.20;;;2.00;;
75429;SDS011;64127;51.488;5.462;2023-04-15T12:01:33;2.10;;;2.00;;
75429;SDS011;64127;51.488;5.462;2023-04-15T12:04:10;2.00;;;1.90;;
75429;SDS011;64127;51.488;5.462;2023-04-15T12:06:56;2.20;;;2.00;;
75429;SDS011;64127;51.488;5.462;2023-04-15T12:09:37;2.30;;;2.10;;
75429;SDS011;64127;51.488;5.462;2023-04-15T12:12:10;2.63;;;2.43;;
75429;SDS011;64127;51.488;5.462;2023-04-15T12:14:42;3.93;;;2.33;;
75429;SDS011;64127;51.488;5.462;2023-04-15T12:17:15;3.20;;;2.50;;
75429;SDS011;64127;51.488;5.462;2023-04-15T12:19:47;4.23;;;2.30;;
75429;SDS011;64127;51.488;5.462;2023-04-15T12:22:20;3.43;;;2.17;;
75429;SDS011;64127;51.488;5.462;2023-04-15T12:24:55;2.30;;;2.10;;
75429;SDS011;64127;51.488;5.462;2023-04-15T12:27:27;2.20;;;2.00;;
75429;SDS011;64127;51.488;5.462;2023-04-15T12:30:04;2.53;;;2.17;;
75429;SDS011;64127;51.488;5.462;2023-04-15T12:32:38;2.27;;;2.07;;
75429;SDS011;64127;51.488;5.462;2023-04-15T12:35:13;2.40;;;2.17;;
75429;SDS011;64127;51.488;5.462;2023-04-15T12:37:45;2.50;;;2.30;;
75429;SDS011;64127;51.488;5.462;2023-04-15T12:40:18;2.60;;;2.40;;
75429;SDS011;64127;51.488;5.462;2023-04-15T12:42:50;2.70;;;2.50;;
75429;SDS011;64127;51.488;5.462;2023-04-15T12:45:22;2.60;;;2.40;;
75429;SDS011;64127;51.488;5.462;2023-04-15T12:47:54;3.80;;;2.50;;
75429;SDS011;64127;51.488;5.462;2023-04-15T12:50:26;2.47;;;2.27;;
75429;SDS011;64127;51.488;5.462;2023-04-15T12:52:58;2.70;;;2.50;;
75429;SDS011;64127;51.488;5.462;2023-04-15T12:55:30;3.27;;;2.40;;
75429;SDS011;64127;51.488;5.462;2023-04-15T12:58:02;3.37;;;2.37;;
75429;SDS011;64127;51.488;5.462;2023-04-15T13:00:34;2.37;;;2.17;;
75429;SDS011;64127;51.488;5.462;2023-04-15T13:03:06;2.57;;;2.37;;
75429;SDS011;64127;51.488;5.462;2023-04-15T13:05:38;2.50;;;2.20;;
75429;SDS011;64127;51.488;5.462;2023-04-15T13:08:10;2.30;;;2.03;;
75429;SDS011;64127;51.488;5.462;2023-04-15T13:10:42;4.20;;;2.10;;
75429;SDS011;64127;51.488;5.462;2023-04-15T13:13:14;4.60;;;2.00;;
75429;SDS011;64127;51.488;5.462;2023-04-15T13:15:46;2.20;;;2.00;;
75429;SDS011;64127;51.488;5.462;2023-04-15T13:18:18;3.83;;;1.90;;
75429;SDS011;64127;51.488;5.462;2023-04-15T13:20:51;1.93;;;1.83;;
75429;SDS011;64127;51.488;5.462;2023-04-15T13:23:23;2.20;;;2.00;;
75429;SDS011;64127;51.488;5.462;2023-04-15T13:25:55;2.23;;;1.97;;
75429;SDS011;64127;51.488;5.462;2023-04-15T13:28:27;1.90;;;1.80;;
75429;SDS011;64127;51.488;5.462;2023-04-15T13:30:59;2.43;;;1.67;;
75429;SDS011;64127;51.488;5.462;2023-04-15T13:33:31;3.93;;;2.00;;
75429;SDS011;64127;51.488;5.462;2023-04-15T13:36:03;2.50;;;1.63;;
75429;SDS011;64127;51.488;5.462;2023-04-15T13:38:35;2.60;;;1.60;;
75429;SDS011;64127;51.488;5.462;2023-04-15T13:41:07;2.13;;;1.63;;
75429;SDS011;64127;51.488;5.462;2023-04-15T13:43:39;3.03;;;1.53;;
75429;SDS011;64127;51.488;5.462;2023-04-15T13:46:11;2.20;;;1.73;;
75429;SDS011;64127;51.488;5.462;2023-04-15T13:48:44;2.10;;;1.90;;
75429;SDS011;64127;51.488;5.462;2023-04-15T13:51:16;1.70;;;1.60;;
75429;SDS011;64127;51.488;5.462;2023-04-15T13:53:47;4.03;;;2.00;;
75429;SDS011;64127;51.488;5.462;2023-04-15T13:56:19;2.10;;;1.90;;
75429;SDS011;64127;51.488;5.462;2023-04-15T13:58:51;3.27;;;1.87;;
75429;SDS011;64127;51.488;5.462;2023-04-15T14:01:29;3.17;;;2.20;;
75429;SDS011;64127;51.488;5.462;2023-04-15T14:04:01;2.10;;;1.90;;
75429;SDS011;64127;51.488;5.462;2023-04-15T14:06:33;2.03;;;1.80;;
75429;SDS011;64127;51.488;5.462;2023-04-15T14:09:05;3.40;;;1.90;;
75429;SDS011;64127;51.488;5.462;2023-04-15T14:11:38;2.37;;;1.77;;
75429;SDS011;64127;51.488;5.462;2023-04-15T14:14:10;2.17;;;1.83;;
75429;SDS011;64127;51.488;5.462;2023-04-15T14:16:44;2.47;;;1.93;;
75429;SDS011;64127;51.488;5.462;2023-04-15T14:19:16;3.03;;;1.80;;
75429;SDS011;64127;51.488;5.462;2023-04-15T14:21:48;4.97;;;1.67;;
75429;SDS011;64127;51.488;5.462;2023-04-15T14:24:20;1.97;;;1.67;;
75429;SDS011;64127;51.488;5.462;2023-04-15T14:26:52;1.57;;;1.40;;
75429;SDS011;64127;51.488;5.462;2023-04-15T14:29:24;1.93;;;1.40;;
75429;SDS011;64127;51.488;5.462;2023-04-15T14:31:56;1.50;;;1.40;;
75429;SDS011;64127;51.488;5.462;2023-04-15T14:34:42;1.40;;;1.30;;
75429;SDS011;64127;51.488;5.462;2023-04-15T14:37:14;4.87;;;1.47;;
75429;SDS011;64127;51.488;5.462;2023-04-15T14:39:46;1.63;;;1.40;;
75429;SDS011;64127;51.488;5.462;2023-04-15T14:42:18;1.40;;;1.30;;
75429;SDS011;64127;51.488;5.462;2023-04-15T14:44:50;1.90;;;1.37;;
75429;SDS011;64127;51.488;5.462;2023-04-15T14:47:22;1.30;;;1.20;;
75429;SDS011;64127;51.488;5.462;2023-04-15T14:49:54;3.00;;;1.50;;
75429;SDS011;64127;51.488;5.462;2023-04-15T14:52:26;1.50;;;1.40;;
75429;SDS011;64127;51.488;5.462;2023-04-15T14:54:58;1.77;;;1.20;;
75429;SDS011;64127;51.488;5.462;2023-04-15T14:57:30;1.90;;;1.40;;
75429;SDS011;64127;51.488;5.462;2023-04-15T15:00:03;1.87;;;1.40;;
75429;SDS011;64127;51.488;5.462;2023-04-15T15:02:37;1.57;;;1.10;;
75429;SDS011;64127;51.488;5.462;2023-04-15T15:05:10;2.17;;;1.10;;
75429;SDS011;64127;51.488;5.462;2023-04-15T15:07:43;2.07;;;1.60;;
75429;SDS011;64127;51.488;5.462;2023-04-15T15:10:15;2.57;;;1.30;;
75429;SDS011;64127;51.488;5.462;2023-04-15T15:13:03;2.90;;;1.10;;
75429;SDS011;64127;51.488;5.462;2023-04-15T15:15:38;2.43;;;1.30;;
75429;SDS011;64127;51.488;5.462;2023-04-15T15:18:14;3.50;;;1.20;;
75429;SDS011;64127;51.488;5.462;2023-04-15T15:20:48;2.10;;;1.30;;
75429;SDS011;64127;51.488;5.462;2023-04-15T15:23:20;2.50;;;1.40;;
75429;SDS011;64127;51.488;5.462;2023-04-15T15:25:52;3.00;;;1.20;;
75429;SDS011;64127;51.488;5.462;2023-04-15T15:28:24;3.57;;;1.27;;
75429;SDS011;64127;51.488;5.462;2023-04-15T15:30:57;1.40;;;1.20;;
75429;SDS011;64127;51.488;5.462;2023-04-15T15:33:29;2.57;;;1.20;;